sensor_id;sensor_type;location;lat;lon;timestamp;P1;durP1;ratioP1;P2;durP2;ratioP2
60233;SDS011;49514;43.538;-5.708;2022-08-21T00:01:07;24.20;;;8.80;;
60233;SDS011;49514;43.538;-5.708;2022-08-21T00:03:37;24.02;;;9.50;;
60233;SDS011;49514;43.538;-5.708;2022-08-21T00:06:04;24.13;;;9.55;;
60233;SDS011;49514;43.538;-5.708;2022-08-21T00:08:31;27.42;;;11.60;;
60233;SDS011;49514;43.538;-5.708;2022-08-21T00:10:58;28.37;;;11.77;;
60233;SDS011;49514;43.538;-5.708;2022-08-21T00:13:25;27.83;;;11.68;;
60233;SDS011;49514;43.538;-5.708;2022-08-21T00:15:52;20.45;;;9.93;;
60233;SDS011;49514;43.538;-5.708;2022-08-21T00:18:18;28.02;;;10.05;;
60233;SDS011;49514;43.538;-5.708;2022-08-21T00:20:46;25.67;;;9.57;;
60233;SDS011;49514;43.538;-5.708;2022-08-21T00:23:13;20.65;;;8.93;;
60233;SDS011;49514;43.538;-5.708;2022-08-21T00:25:41;17.90;;;8.32;;
60233;SDS011;49514;43.538;-5.708;2022-08-21T00:28:09;25.17;;;9.25;;
60233;SDS011;49514;43.538;-5.708;2022-08-21T00:30:36;19.85;;;8.57;;
60233;SDS011;49514;43.538;-5.708;2022-08-21T00:33:03;21.08;;;8.85;;
60233;SDS011;49514;43.538;-5.708;2022-08-21T00:35:33;18.65;;;7.70;;
60233;SDS011;49514;43.538;-5.708;2022-08-21T00:38:01;16.30;;;7.03;;
60233;SDS011;49514;43.538;-5.708;2022-08-21T00:40:30;17.33;;;7.20;;
60233;SDS011;49514;43.538;-5.708;2022-08-21T00:43:03;18.90;;;6.70;;
60233;SDS011;49514;43.538;-5.708;2022-08-21T00:45:30;15.57;;;6.63;;
60233;SDS011;49514;43.538;-5.708;2022-08-21T00:47:57;19.83;;;6.93;;
60233;SDS011;49514;43.538;-5.708;2022-08-21T00:50:25;15.80;;;6.25;;
60233;SDS011;49514;43.538;-5.708;2022-08-21T00:52:55;13.68;;;6.20;;
60233;SDS011;49514;43.538;-5.708;2022-08-21T00:55:22;15.68;;;5.13;;
60233;SDS011;49514;43.538;-5.708;2022-08-21T00:57:51;12.50;;;5.00;;
60233;SDS011;49514;43.538;-5.708;2022-08-21T01:00:31;10.75;;;4.88;;
60233;SDS011;49514;43.538;-5.708;2022-08-21T01:03:01;11.82;;;4.63;;
60233;SDS011;49514;43.538;-5.708;2022-08-21T01:05:33;13.77;;;4.95;;
60233;SDS011;49514;43.538;-5.708;2022-08-21T01:08:00;11.40;;;4.70;;
60233;SDS011;49514;43.538;-5.708;2022-08-21T01:10:27;15.38;;;4.82;;
60233;SDS011;49514;43.538;-5.708;2022-08-21T01:12:55;10.50;;;4.70;;
60233;SDS011;49514;43.538;-5.708;2022-08-21T01:15:23;14.30;;;5.60;;
60233;SDS011;49514;43.538;-5.708;2022-08-21T01:17:54;13.40;;;6.13;;
60233;SDS011;49514;43.538;-5.708;2022-08-21T01:20:21;12.73;;;5.70;;
60233;SDS011;49514;43.538;-5.708;2022-08-21T01:22:48;18.30;;;10.32;;
60233;SDS011;49514;43.538;-5.708;2022-08-21T01:25:15;18.17;;;9.50;;
60233;SDS011;49514;43.538;-5.708;2022-08-21T01:27:43;18.13;;;10.03;;
60233;SDS011;49514;43.538;-5.708;2022-08-21T01:30:12;20.70;;;9.93;;
60233;SDS011;49514;43.538;-5.708;2022-08-21T01:32:41;20.30;;;10.43;;
60233;SDS011;49514;43.538;-5.708;2022-08-21T01:35:08;18.43;;;10.87;;
60233;SDS011;49514;43.538;-5.708;2022-08-21T01:37:37;14.40;;;8.63;;
60233;SDS011;49514;43.538;-5.708;2022-08-21T01:40:05;13.35;;;7.63;;
60233;SDS011;49514;43.538;-5.708;2022-08-21T01:42:33;14.73;;;8.10;;
60233;SDS011;49514;43.538;-5.708;2022-08-21T01:45:00;12.47;;;7.27;;
60233;SDS011;49514;43.538;-5.708;2022-08-21T01:47:27;15.98;;;7.63;;
60233;SDS011;49514;43.538;-5.708;2022-08-21T01:49:53;12.07;;;6.83;;
60233;SDS011;49514;43.538;-5.708;2022-08-21T01:52:20;14.60;;;6.28;;
60233;SDS011;49514;43.538;-5.708;2022-08-21T01:54:47;12.85;;;5.90;;
60233;SDS011;49514;43.538;-5.708;2022-08-21T01:57:14;9.40;;;4.80;;
60233;SDS011;49514;43.538;-5.708;2022-08-21T01:59:41;10.02;;;4.93;;
60233;SDS011;49514;43.538;-5.708;2022-08-21T02:02:07;9.25;;;4.65;;
60233;SDS011;49514;43.538;-5.708;2022-08-21T02:04:34;8.10;;;4.22;;
60233;SDS011;49514;43.538;-5.708;2022-08-21T02:07:01;7.82;;;4.00;;
60233;SDS011;49514;43.538;-5.708;2022-08-21T02:09:29;8.13;;;4.30;;
60233;SDS011;49514;43.538;-5.708;2022-08-21T02:11:56;12.48;;;4.78;;
60233;SDS011;49514;43.538;-5.708;2022-08-21T02:14:22;9.80;;;4.95;;
60233;SDS011;49514;43.538;-5.708;2022-08-21T02:16:49;11.38;;;4.72;;
60233;SDS011;49514;43.538;-5.708;2022-08-21T02:19:16;11.80;;;4.70;;
60233;SDS011;49514;43.538;-5.708;2022-08-21T02:21:42;11.85;;;5.30;;
60233;SDS011;49514;43.538;-5.708;2022-08-21T02:24:10;15.80;;;5.32;;
60233;SDS011;49514;43.538;-5.708;2022-08-21T02:26:37;14.82;;;6.32;;
60233;SDS011;49514;43.538;-5.708;2022-08-21T02:29:04;13.20;;;5.70;;
60233;SDS011;49514;43.538;-5.708;2022-08-21T02:31:31;13.90;;;5.50;;
60233;SDS011;49514;43.538;-5.708;2022-08-21T02:33:58;10.35;;;5.95;;
60233;SDS011;49514;43.538;-5.708;2022-08-21T02:36:25;15.27;;;6.47;;
60233;SDS011;49514;43.538;-5.708;2022-08-21T02:38:52;15.40;;;7.20;;
60233;SDS011;49514;43.538;-5.708;2022-08-21T02:41:20;23.20;;;7.70;;
60233;SDS011;49514;43.538;-5.708;2022-08-21T02:43:48;17.30;;;7.20;;
60233;SDS011;49514;43.538;-5.708;2022-08-21T02:46:16;15.05;;;6.82;;
60233;SDS011;49514;43.538;-5.708;2022-08-21T02:48:45;18.00;;;6.88;;
60233;SDS011;49514;43.538;-5.708;2022-08-21T02:51:16;14.63;;;6.20;;
60233;SDS011;49514;43.538;-5.708;2022-08-21T02:53:45;11.07;;;6.30;;
60233;SDS011;49514;43.538;-5.708;2022-08-21T02:56:14;10.70;;;5.45;;
60233;SDS011;49514;43.538;-5.708;2022-08-21T02:58:49;14.90;;;6.15;;
60233;SDS011;49514;43.538;-5.708;2022-08-21T03:01:17;11.43;;;5.70;;
60233;SDS011;49514;43.538;-5.708;2022-08-21T03:03:44;9.75;;;5.15;;
60233;SDS011;49514;43.538;-5.708;2022-08-21T03:06:15;10.87;;;4.80;;
60233;SDS011;49514;43.538;-5.708;2022-08-21T03:08:44;13.75;;;5.85;;
60233;SDS011;49514;43.538;-5.708;2022-08-21T03:11:11;10.73;;;5.50;;
60233;SDS011;49514;43.538;-5.708;2022-08-21T03:13:39;12.37;;;5.77;;
60233;SDS011;49514;43.538;-5.708;2022-08-21T03:16:06;14.02;;;5.43;;
60233;SDS011;49514;43.538;-5.708;2022-08-21T03:18:33;12.10;;;5.35;;
60233;SDS011;49514;43.538;-5.708;2022-08-21T03:21:00;12.35;;;5.60;;
60233;SDS011;49514;43.538;-5.708;2022-08-21T03:23:26;13.48;;;5.90;;
60233;SDS011;49514;43.538;-5.708;2022-08-21T03:25:53;16.17;;;6.00;;
60233;SDS011;49514;43.538;-5.708;2022-08-21T03:28:20;17.38;;;6.07;;
60233;SDS011;49514;43.538;-5.708;2022-08-21T03:30:48;14.82;;;6.25;;
60233;SDS011;49514;43.538;-5.708;2022-08-21T03:33:17;16.63;;;6.32;;
60233;SDS011;49514;43.538;-5.708;2022-08-21T03:35:45;17.45;;;6.32;;
60233;SDS011;49514;43.538;-5.708;2022-08-21T03:38:15;16.00;;;6.40;;
60233;SDS011;49514;43.538;-5.708;2022-08-21T03:40:42;14.80;;;5.75;;
60233;SDS011;49514;43.538;-5.708;2022-08-21T03:43:09;15.65;;;6.38;;
60233;SDS011;49514;43.538;-5.708;2022-08-21T03:45:35;13.60;;;6.20;;
60233;SDS011;49514;43.538;-5.708;2022-08-21T03:48:03;15.32;;;6.53;;
60233;SDS011;49514;43.538;-5.708;2022-08-21T03:50:31;15.32;;;6.57;;
60233;SDS011;49514;43.538;-5.708;2022-08-21T03:52:59;13.95;;;6.28;;
60233;SDS011;49514;43.538;-5.708;2022-08-21T03:55:29;16.27;;;6.25;;
60233;SDS011;49514;43.538;-5.708;2022-08-21T03:57:55;16.23;;;6.57;;
60233;SDS011;49514;43.538;-5.708;2022-08-21T04:00:22;19.73;;;6.53;;
60233;SDS011;49514;43.538;-5.708;2022-08-21T04:02:50;12.98;;;5.88;;
60233;SDS011;49514;43.538;-5.708;2022-08-21T04:05:17;17.92;;;6.25;;
60233;SDS011;49514;43.538;-5.708;2022-08-21T04:07:57;16.38;;;6.50;;
60233;SDS011;49514;43.538;-5.708;2022-08-21T04:10:25;15.98;;;5.90;;
60233;SDS011;49514;43.538;-5.708;2022-08-21T04:12:52;15.63;;;6.50;;
60233;SDS011;49514;43.538;-5.708;2022-08-21T04:15:20;15.45;;;6.10;;
60233;SDS011;49514;43.538;-5.708;2022-08-21T04:17:48;12.55;;;6.00;;
60233;SDS011;49514;43.538;-5.708;2022-08-21T04:20:15;20.00;;;6.23;;
60233;SDS011;49514;43.538;-5.708;2022-08-21T04:22:44;17.38;;;6.80;;
60233;SDS011;49514;43.538;-5.708;2022-08-21T04:25:12;14.18;;;6.10;;
60233;SDS011;49514;43.538;-5.708;2022-08-21T04:27:40;13.33;;;5.50;;
60233;SDS011;49514;43.538;-5.708;2022-08-21T04:30:08;19.17;;;6.72;;
60233;SDS011;49514;43.538;-5.708;2022-08-21T04:32:36;22.10;;;7.47;;
60233;SDS011;49514;43.538;-5.708;2022-08-21T04:35:05;17.37;;;7.63;;
60233;SDS011;49514;43.538;-5.708;2022-08-21T04:37:35;17.15;;;6.40;;
60233;SDS011;49514;43.538;-5.708;2022-08-21T04:40:03;19.25;;;7.38;;
60233;SDS011;49514;43.538;-5.708;2022-08-21T04:42:30;21.58;;;7.68;;
60233;SDS011;49514;43.538;-5.708;2022-08-21T04:44:57;17.77;;;7.53;;
60233;SDS011;49514;43.538;-5.708;2022-08-21T04:47:24;18.83;;;7.30;;
60233;SDS011;49514;43.538;-5.708;2022-08-21T04:49:50;22.05;;;8.32;;
60233;SDS011;49514;43.538;-5.708;2022-08-21T04:52:17;19.42;;;7.82;;
60233;SDS011;49514;43.538;-5.708;2022-08-21T04:54:48;22.52;;;8.57;;
60233;SDS011;49514;43.538;-5.708;2022-08-21T04:57:17;22.92;;;7.97;;
60233;SDS011;49514;43.538;-5.708;2022-08-21T04:59:46;19.13;;;8.02;;
60233;SDS011;49514;43.538;-5.708;2022-08-21T05:02:16;16.05;;;6.90;;
60233;SDS011;49514;43.538;-5.708;2022-08-21T05:04:45;19.30;;;7.10;;
60233;SDS011;49514;43.538;-5.708;2022-08-21T05:07:15;15.82;;;6.55;;
60233;SDS011;49514;43.538;-5.708;2022-08-21T05:09:46;12.93;;;5.87;;
60233;SDS011;49514;43.538;-5.708;2022-08-21T05:12:12;15.68;;;6.70;;
60233;SDS011;49514;43.538;-5.708;2022-08-21T05:14:39;15.23;;;5.67;;
60233;SDS011;49514;43.538;-5.708;2022-08-21T05:17:08;16.25;;;6.00;;
60233;SDS011;49514;43.538;-5.708;2022-08-21T05:19:36;12.87;;;5.03;;
60233;SDS011;49514;43.538;-5.708;2022-08-21T05:22:02;12.05;;;5.55;;
60233;SDS011;49514;43.538;-5.708;2022-08-21T05:24:29;13.20;;;5.60;;
60233;SDS011;49514;43.538;-5.708;2022-08-21T05:26:56;10.80;;;5.35;;
60233;SDS011;49514;43.538;-5.708;2022-08-21T05:29:22;11.13;;;4.83;;
60233;SDS011;49514;43.538;-5.708;2022-08-21T05:31:49;11.95;;;5.63;;
60233;SDS011;49514;43.538;-5.708;2022-08-21T05:34:19;14.47;;;6.07;;
60233;SDS011;49514;43.538;-5.708;2022-08-21T05:36:49;12.80;;;5.07;;
60233;SDS011;49514;43.538;-5.708;2022-08-21T05:39:16;12.50;;;5.33;;
60233;SDS011;49514;43.538;-5.708;2022-08-21T05:41:42;13.98;;;5.50;;
60233;SDS011;49514;43.538;-5.708;2022-08-21T05:44:10;11.20;;;5.20;;
60233;SDS011;49514;43.538;-5.708;2022-08-21T05:46:36;10.17;;;4.90;;
60233;SDS011;49514;43.538;-5.708;2022-08-21T05:49:03;11.88;;;5.22;;
60233;SDS011;49514;43.538;-5.708;2022-08-21T05:51:30;11.45;;;5.07;;
60233;SDS011;49514;43.538;-5.708;2022-08-21T05:53:57;11.60;;;5.20;;
60233;SDS011;49514;43.538;-5.708;2022-08-21T05:56:23;7.88;;;4.63;;
60233;SDS011;49514;43.538;-5.708;2022-08-21T05:58:50;11.20;;;5.32;;
60233;SDS011;49514;43.538;-5.708;2022-08-21T06:01:16;14.00;;;4.97;;
60233;SDS011;49514;43.538;-5.708;2022-08-21T06:03:43;11.32;;;4.82;;
60233;SDS011;49514;43.538;-5.708;2022-08-21T06:06:10;11.30;;;5.38;;
60233;SDS011;49514;43.538;-5.708;2022-08-21T06:08:36;10.10;;;4.82;;
60233;SDS011;49514;43.538;-5.708;2022-08-21T06:11:03;11.65;;;5.30;;
60233;SDS011;49514;43.538;-5.708;2022-08-21T06:13:31;10.63;;;4.70;;
60233;SDS011;49514;43.538;-5.708;2022-08-21T06:16:09;14.18;;;4.95;;
60233;SDS011;49514;43.538;-5.708;2022-08-21T06:18:38;13.85;;;5.15;;
60233;SDS011;49514;43.538;-5.708;2022-08-21T06:21:05;13.70;;;5.40;;
60233;SDS011;49514;43.538;-5.708;2022-08-21T06:23:33;20.15;;;6.03;;
60233;SDS011;49514;43.538;-5.708;2022-08-21T06:26:01;12.88;;;5.45;;
60233;SDS011;49514;43.538;-5.708;2022-08-21T06:28:30;15.50;;;6.13;;
60233;SDS011;49514;43.538;-5.708;2022-08-21T06:30:58;15.20;;;6.38;;
60233;SDS011;49514;43.538;-5.708;2022-08-21T06:33:24;16.23;;;6.30;;
60233;SDS011;49514;43.538;-5.708;2022-08-21T06:35:51;17.58;;;6.43;;
60233;SDS011;49514;43.538;-5.708;2022-08-21T06:38:18;15.35;;;6.10;;
60233;SDS011;49514;43.538;-5.708;2022-08-21T06:40:45;13.52;;;5.85;;
60233;SDS011;49514;43.538;-5.708;2022-08-21T06:43:13;16.90;;;6.38;;
60233;SDS011;49514;43.538;-5.708;2022-08-21T06:45:41;16.15;;;6.05;;
60233;SDS011;49514;43.538;-5.708;2022-08-21T06:48:08;15.23;;;5.50;;
60233;SDS011;49514;43.538;-5.708;2022-08-21T06:50:35;21.10;;;6.15;;
60233;SDS011;49514;43.538;-5.708;2022-08-21T06:53:06;17.17;;;6.50;;
60233;SDS011;49514;43.538;-5.708;2022-08-21T06:55:36;17.05;;;7.20;;
60233;SDS011;49514;43.538;-5.708;2022-08-21T06:58:04;14.73;;;6.95;;
60233;SDS011;49514;43.538;-5.708;2022-08-21T07:00:30;17.47;;;7.23;;
60233;SDS011;49514;43.538;-5.708;2022-08-21T07:02:58;15.73;;;6.55;;
60233;SDS011;49514;43.538;-5.708;2022-08-21T07:05:25;14.38;;;6.60;;
60233;SDS011;49514;43.538;-5.708;2022-08-21T07:07:53;15.33;;;5.67;;
60233;SDS011;49514;43.538;-5.708;2022-08-21T07:10:20;15.02;;;5.88;;
60233;SDS011;49514;43.538;-5.708;2022-08-21T07:12:47;13.00;;;6.40;;
60233;SDS011;49514;43.538;-5.708;2022-08-21T07:15:13;12.37;;;5.60;;
60233;SDS011;49514;43.538;-5.708;2022-08-21T07:17:40;15.43;;;6.80;;
60233;SDS011;49514;43.538;-5.708;2022-08-21T07:20:07;14.82;;;6.65;;
60233;SDS011;49514;43.538;-5.708;2022-08-21T07:22:35;12.80;;;6.72;;
60233;SDS011;49514;43.538;-5.708;2022-08-21T07:25:02;11.23;;;6.30;;
60233;SDS011;49514;43.538;-5.708;2022-08-21T07:32:23;11.68;;;5.35;;
60233;SDS011;49514;43.538;-5.708;2022-08-21T12:58:15;4.38;;;1.23;;
60233;SDS011;49514;43.538;-5.708;2022-08-21T13:05:40;3.95;;;1.45;;
60233;SDS011;49514;43.538;-5.708;2022-08-21T13:08:07;3.63;;;1.52;;
60233;SDS011;49514;43.538;-5.708;2022-08-21T13:10:37;3.97;;;1.50;;
60233;SDS011;49514;43.538;-5.708;2022-08-21T13:13:06;3.40;;;1.40;;
60233;SDS011;49514;43.538;-5.708;2022-08-21T13:15:35;3.88;;;1.50;;
60233;SDS011;49514;43.538;-5.708;2022-08-21T13:18:03;3.97;;;1.42;;
60233;SDS011;49514;43.538;-5.708;2022-08-21T13:20:33;1.65;;;1.00;;
60233;SDS011;49514;43.538;-5.708;2022-08-21T13:23:06;3.40;;;1.35;;
60233;SDS011;49514;43.538;-5.708;2022-08-21T13:25:35;4.43;;;1.50;;
60233;SDS011;49514;43.538;-5.708;2022-08-21T13:28:07;8.55;;;1.67;;
60233;SDS011;49514;43.538;-5.708;2022-08-21T13:30:39;2.95;;;1.58;;
60233;SDS011;49514;43.538;-5.708;2022-08-21T13:33:09;4.15;;;1.40;;
60233;SDS011;49514;43.538;-5.708;2022-08-21T13:36:13;2.80;;;1.13;;
60233;SDS011;49514;43.538;-5.708;2022-08-21T13:38:34;2.83;;;1.30;;
60233;SDS011;49514;43.538;-5.708;2022-08-21T13:41:21;4.88;;;1.67;;
60233;SDS011;49514;43.538;-5.708;2022-08-21T13:46:29;5.35;;;1.27;;
60233;SDS011;49514;43.538;-5.708;2022-08-21T13:48:57;3.60;;;1.38;;
60233;SDS011;49514;43.538;-5.708;2022-08-21T13:51:24;4.43;;;1.50;;
60233;SDS011;49514;43.538;-5.708;2022-08-21T13:53:52;4.60;;;1.35;;
60233;SDS011;49514;43.538;-5.708;2022-08-21T13:56:28;8.30;;;1.50;;
60233;SDS011;49514;43.538;-5.708;2022-08-21T14:09:13;3.30;;;1.20;;
60233;SDS011;49514;43.538;-5.708;2022-08-21T14:14:22;4.43;;;1.35;;
60233;SDS011;49514;43.538;-5.708;2022-08-21T14:34:18;4.40;;;1.40;;
60233;SDS011;49514;43.538;-5.708;2022-08-21T14:36:46;3.33;;;1.48;;
60233;SDS011;49514;43.538;-5.708;2022-08-21T14:39:14;3.17;;;1.05;;
60233;SDS011;49514;43.538;-5.708;2022-08-21T14:41:40;3.58;;;1.20;;
60233;SDS011;49514;43.538;-5.708;2022-08-21T14:44:09;6.85;;;1.05;;
60233;SDS011;49514;43.538;-5.708;2022-08-21T14:46:36;4.95;;;1.30;;
60233;SDS011;49514;43.538;-5.708;2022-08-21T14:49:03;4.38;;;1.13;;
60233;SDS011;49514;43.538;-5.708;2022-08-21T14:51:30;2.20;;;1.00;;
60233;SDS011;49514;43.538;-5.708;2022-08-21T14:53:57;3.20;;;1.30;;
60233;SDS011;49514;43.538;-5.708;2022-08-21T15:08:41;3.47;;;1.25;;
60233;SDS011;49514;43.538;-5.708;2022-08-21T15:11:11;5.75;;;1.60;;
60233;SDS011;49514;43.538;-5.708;2022-08-21T15:13:42;3.17;;;1.38;;
60233;SDS011;49514;43.538;-5.708;2022-08-21T15:16:10;1.98;;;1.15;;
60233;SDS011;49514;43.538;-5.708;2022-08-21T15:18:38;4.00;;;1.15;;
60233;SDS011;49514;43.538;-5.708;2022-08-21T15:21:05;3.40;;;1.40;;
60233;SDS011;49514;43.538;-5.708;2022-08-21T15:28:25;2.78;;;1.30;;
60233;SDS011;49514;43.538;-5.708;2022-08-21T15:30:51;4.43;;;1.40;;
60233;SDS011;49514;43.538;-5.708;2022-08-21T16:00:20;2.95;;;1.17;;
60233;SDS011;49514;43.538;-5.708;2022-08-21T16:02:50;2.38;;;1.00;;
60233;SDS011;49514;43.538;-5.708;2022-08-21T16:05:19;1.63;;;1.02;;
60233;SDS011;49514;43.538;-5.708;2022-08-21T16:07:47;6.97;;;1.65;;
60233;SDS011;49514;43.538;-5.708;2022-08-21T16:10:16;5.45;;;1.50;;
60233;SDS011;49514;43.538;-5.708;2022-08-21T16:13:03;4.78;;;1.30;;
60233;SDS011;49514;43.538;-5.708;2022-08-21T16:15:32;2.85;;;1.40;;
60233;SDS011;49514;43.538;-5.708;2022-08-21T16:17:59;2.25;;;1.20;;
60233;SDS011;49514;43.538;-5.708;2022-08-21T16:20:26;2.22;;;1.10;;
60233;SDS011;49514;43.538;-5.708;2022-08-21T16:22:55;3.97;;;1.13;;
60233;SDS011;49514;43.538;-5.708;2022-08-21T16:25:23;3.17;;;1.17;;
60233;SDS011;49514;43.538;-5.708;2022-08-21T16:27:55;2.42;;;1.25;;
60233;SDS011;49514;43.538;-5.708;2022-08-21T16:30:25;1.60;;;1.05;;
60233;SDS011;49514;43.538;-5.708;2022-08-21T16:32:53;2.28;;;1.23;;
60233;SDS011;49514;43.538;-5.708;2022-08-21T16:35:20;2.47;;;1.25;;
60233;SDS011;49514;43.538;-5.708;2022-08-21T16:37:47;1.42;;;1.02;;
60233;SDS011;49514;43.538;-5.708;2022-08-21T16:40:14;1.38;;;1.20;;
60233;SDS011;49514;43.538;-5.708;2022-08-21T16:42:43;2.58;;;1.30;;
60233;SDS011;49514;43.538;-5.708;2022-08-21T16:45:12;3.15;;;1.30;;
60233;SDS011;49514;43.538;-5.708;2022-08-21T16:47:40;2.92;;;1.40;;
60233;SDS011;49514;43.538;-5.708;2022-08-21T16:50:08;3.53;;;1.30;;
60233;SDS011;49514;43.538;-5.708;2022-08-21T16:52:36;1.90;;;1.30;;
60233;SDS011;49514;43.538;-5.708;2022-08-21T16:55:03;2.42;;;1.10;;
60233;SDS011;49514;43.538;-5.708;2022-08-21T16:57:30;2.78;;;1.27;;
60233;SDS011;49514;43.538;-5.708;2022-08-21T16:59:57;2.92;;;1.20;;
60233;SDS011;49514;43.538;-5.708;2022-08-21T17:02:29;1.92;;;1.20;;
60233;SDS011;49514;43.538;-5.708;2022-08-21T17:04:58;5.40;;;1.40;;
60233;SDS011;49514;43.538;-5.708;2022-08-21T17:07:27;2.00;;;1.15;;
60233;SDS011;49514;43.538;-5.708;2022-08-21T17:09:54;1.70;;;1.17;;
60233;SDS011;49514;43.538;-5.708;2022-08-21T17:12:21;2.78;;;1.30;;
60233;SDS011;49514;43.538;-5.708;2022-08-21T17:14:50;3.72;;;1.40;;
60233;SDS011;49514;43.538;-5.708;2022-08-21T17:17:18;2.78;;;1.40;;
60233;SDS011;49514;43.538;-5.708;2022-08-21T17:19:45;3.95;;;1.20;;
60233;SDS011;49514;43.538;-5.708;2022-08-21T17:22:13;3.58;;;1.00;;
60233;SDS011;49514;43.538;-5.708;2022-08-21T17:24:39;3.17;;;1.25;;
60233;SDS011;49514;43.538;-5.708;2022-08-21T17:27:07;3.65;;;1.15;;
60233;SDS011;49514;43.538;-5.708;2022-08-21T17:29:35;2.50;;;1.00;;
60233;SDS011;49514;43.538;-5.708;2022-08-21T17:32:11;2.40;;;1.23;;
60233;SDS011;49514;43.538;-5.708;2022-08-21T17:34:40;2.63;;;1.13;;
60233;SDS011;49514;43.538;-5.708;2022-08-21T17:37:07;2.20;;;1.20;;
60233;SDS011;49514;43.538;-5.708;2022-08-21T17:39:33;3.33;;;1.20;;
60233;SDS011;49514;43.538;-5.708;2022-08-21T17:42:03;2.00;;;1.00;;
60233;SDS011;49514;43.538;-5.708;2022-08-21T17:44:37;2.60;;;1.23;;
60233;SDS011;49514;43.538;-5.708;2022-08-21T17:47:06;2.25;;;1.15;;
60233;SDS011;49514;43.538;-5.708;2022-08-21T17:49:34;2.00;;;1.25;;
60233;SDS011;49514;43.538;-5.708;2022-08-21T17:52:01;2.88;;;1.15;;
60233;SDS011;49514;43.538;-5.708;2022-08-21T17:54:29;3.53;;;1.17;;
60233;SDS011;49514;43.538;-5.708;2022-08-21T17:56:56;2.50;;;1.10;;
60233;SDS011;49514;43.538;-5.708;2022-08-21T17:59:23;5.75;;;1.30;;
60233;SDS011;49514;43.538;-5.708;2022-08-21T18:01:51;4.75;;;1.63;;
60233;SDS011;49514;43.538;-5.708;2022-08-21T18:04:22;5.28;;;1.27;;
60233;SDS011;49514;43.538;-5.708;2022-08-21T18:06:49;4.30;;;1.10;;
60233;SDS011;49514;43.538;-5.708;2022-08-21T18:09:15;5.93;;;1.30;;
60233;SDS011;49514;43.538;-5.708;2022-08-21T18:11:43;2.83;;;1.23;;
60233;SDS011;49514;43.538;-5.708;2022-08-21T18:14:09;3.08;;;1.20;;
60233;SDS011;49514;43.538;-5.708;2022-08-21T18:16:37;3.97;;;1.40;;
60233;SDS011;49514;43.538;-5.708;2022-08-21T18:19:08;3.35;;;1.30;;
60233;SDS011;49514;43.538;-5.708;2022-08-21T18:21:36;3.60;;;1.33;;
60233;SDS011;49514;43.538;-5.708;2022-08-21T18:24:03;2.92;;;1.20;;
60233;SDS011;49514;43.538;-5.708;2022-08-21T18:26:31;4.15;;;1.40;;
60233;SDS011;49514;43.538;-5.708;2022-08-21T18:29:04;3.15;;;1.70;;
60233;SDS011;49514;43.538;-5.708;2022-08-21T18:31:34;3.63;;;1.60;;
60233;SDS011;49514;43.538;-5.708;2022-08-21T18:34:04;3.90;;;1.35;;
60233;SDS011;49514;43.538;-5.708;2022-08-21T18:36:35;2.58;;;1.33;;
60233;SDS011;49514;43.538;-5.708;2022-08-21T18:39:04;2.70;;;1.45;;
60233;SDS011;49514;43.538;-5.708;2022-08-21T18:41:31;2.08;;;1.00;;
60233;SDS011;49514;43.538;-5.708;2022-08-21T18:43:58;3.50;;;0.93;;
60233;SDS011;49514;43.538;-5.708;2022-08-21T18:46:24;3.92;;;1.20;;
60233;SDS011;49514;43.538;-5.708;2022-08-21T18:48:52;2.75;;;1.13;;
60233;SDS011;49514;43.538;-5.708;2022-08-21T18:51:19;2.40;;;1.08;;
60233;SDS011;49514;43.538;-5.708;2022-08-21T18:53:46;3.53;;;1.30;;
60233;SDS011;49514;43.538;-5.708;2022-08-21T18:56:13;1.88;;;1.00;;
60233;SDS011;49514;43.538;-5.708;2022-08-21T18:58:42;3.28;;;1.00;;
60233;SDS011;49514;43.538;-5.708;2022-08-21T19:01:10;2.58;;;1.20;;
60233;SDS011;49514;43.538;-5.708;2022-08-21T19:03:37;2.70;;;1.10;;
60233;SDS011;49514;43.538;-5.708;2022-08-21T19:06:04;4.35;;;1.25;;
60233;SDS011;49514;43.538;-5.708;2022-08-21T19:08:33;4.68;;;1.33;;
60233;SDS011;49514;43.538;-5.708;2022-08-21T19:11:00;4.18;;;1.42;;
60233;SDS011;49514;43.538;-5.708;2022-08-21T19:13:29;5.10;;;1.42;;
60233;SDS011;49514;43.538;-5.708;2022-08-21T19:15:57;4.15;;;1.90;;
60233;SDS011;49514;43.538;-5.708;2022-08-21T19:18:28;3.88;;;1.40;;
60233;SDS011;49514;43.538;-5.708;2022-08-21T19:20:56;3.47;;;1.45;;
60233;SDS011;49514;43.538;-5.708;2022-08-21T19:23:24;3.75;;;1.25;;
60233;SDS011;49514;43.538;-5.708;2022-08-21T19:25:53;5.25;;;1.20;;
60233;SDS011;49514;43.538;-5.708;2022-08-21T19:28:27;3.35;;;1.35;;
60233;SDS011;49514;43.538;-5.708;2022-08-21T19:30:57;3.78;;;1.35;;
60233;SDS011;49514;43.538;-5.708;2022-08-21T19:33:31;2.45;;;1.23;;
60233;SDS011;49514;43.538;-5.708;2022-08-21T19:36:01;6.05;;;1.70;;
60233;SDS011;49514;43.538;-5.708;2022-08-21T19:38:29;3.40;;;1.50;;
60233;SDS011;49514;43.538;-5.708;2022-08-21T19:40:56;5.40;;;1.70;;
60233;SDS011;49514;43.538;-5.708;2022-08-21T19:43:24;3.55;;;1.33;;
60233;SDS011;49514;43.538;-5.708;2022-08-21T19:45:54;4.25;;;1.40;;
60233;SDS011;49514;43.538;-5.708;2022-08-21T19:48:24;3.42;;;1.45;;
60233;SDS011;49514;43.538;-5.708;2022-08-21T19:50:52;8.68;;;1.77;;
60233;SDS011;49514;43.538;-5.708;2022-08-21T19:53:19;4.65;;;1.63;;
60233;SDS011;49514;43.538;-5.708;2022-08-21T19:55:46;3.13;;;1.00;;
60233;SDS011;49514;43.538;-5.708;2022-08-21T19:58:35;5.70;;;1.83;;
60233;SDS011;49514;43.538;-5.708;2022-08-21T20:01:04;5.72;;;1.60;;
60233;SDS011;49514;43.538;-5.708;2022-08-21T20:03:33;4.43;;;1.80;;
60233;SDS011;49514;43.538;-5.708;2022-08-21T20:06:00;3.13;;;1.70;;
60233;SDS011;49514;43.538;-5.708;2022-08-21T20:08:27;5.47;;;1.65;;
60233;SDS011;49514;43.538;-5.708;2022-08-21T20:10:55;3.67;;;1.85;;
60233;SDS011;49514;43.538;-5.708;2022-08-21T20:13:23;3.53;;;2.00;;
60233;SDS011;49514;43.538;-5.708;2022-08-21T20:15:51;4.75;;;2.22;;
60233;SDS011;49514;43.538;-5.708;2022-08-21T20:18:19;5.15;;;1.75;;
60233;SDS011;49514;43.538;-5.708;2022-08-21T20:20:46;3.47;;;1.70;;
60233;SDS011;49514;43.538;-5.708;2022-08-21T20:23:13;5.20;;;1.65;;
60233;SDS011;49514;43.538;-5.708;2022-08-21T20:25:40;2.42;;;1.30;;
60233;SDS011;49514;43.538;-5.708;2022-08-21T20:28:08;4.95;;;1.38;;
60233;SDS011;49514;43.538;-5.708;2022-08-21T20:30:35;2.45;;;1.00;;
60233;SDS011;49514;43.538;-5.708;2022-08-21T20:33:02;3.13;;;1.00;;
60233;SDS011;49514;43.538;-5.708;2022-08-21T20:35:29;3.95;;;1.10;;
60233;SDS011;49514;43.538;-5.708;2022-08-21T20:37:56;2.47;;;1.00;;
60233;SDS011;49514;43.538;-5.708;2022-08-21T20:40:23;2.42;;;0.80;;
60233;SDS011;49514;43.538;-5.708;2022-08-21T20:42:52;1.60;;;0.80;;
60233;SDS011;49514;43.538;-5.708;2022-08-21T20:45:24;2.50;;;1.05;;
60233;SDS011;49514;43.538;-5.708;2022-08-21T20:47:55;2.83;;;1.10;;
60233;SDS011;49514;43.538;-5.708;2022-08-21T20:50:26;3.28;;;1.00;;
60233;SDS011;49514;43.538;-5.708;2022-08-21T20:52:59;3.00;;;1.00;;
60233;SDS011;49514;43.538;-5.708;2022-08-21T20:55:40;1.52;;;0.85;;
60233;SDS011;49514;43.538;-5.708;2022-08-21T20:58:12;1.35;;;0.88;;
60233;SDS011;49514;43.538;-5.708;2022-08-21T21:01:05;1.90;;;1.00;;
60233;SDS011;49514;43.538;-5.708;2022-08-21T21:06:25;1.20;;;1.10;;
60233;SDS011;49514;43.538;-5.708;2022-08-21T21:08:57;2.70;;;1.08;;
60233;SDS011;49514;43.538;-5.708;2022-08-21T21:11:43;4.13;;;1.38;;
60233;SDS011;49514;43.538;-5.708;2022-08-21T21:17:06;3.65;;;1.25;;
60233;SDS011;49514;43.538;-5.708;2022-08-21T21:19:44;5.68;;;1.60;;
60233;SDS011;49514;43.538;-5.708;2022-08-21T21:22:29;3.72;;;1.60;;
60233;SDS011;49514;43.538;-5.708;2022-08-21T21:25:17;5.07;;;1.77;;
60233;SDS011;49514;43.538;-5.708;2022-08-21T21:28:00;5.63;;;2.08;;
60233;SDS011;49514;43.538;-5.708;2022-08-21T21:30:34;3.95;;;1.83;;
60233;SDS011;49514;43.538;-5.708;2022-08-21T21:33:06;3.65;;;1.73;;